createdAt,value
2016-08-26T07:51:13.964Z,29.18
2016-08-26T07:51:48.268Z,29.17
2016-08-26T07:52:22.559Z,29.26
2016-08-26T07:52:56.844Z,29.32
2016-08-26T07:53:31.137Z,29.32
2016-08-26T07:54:05.574Z,29.26
2016-08-26T07:54:41.141Z,29.3
2016-08-26T07:55:16.643Z,29.36
2016-08-26T07:55:52.087Z,29.36
2016-08-26T07:56:27.810Z,29.39
2016-08-26T07:57:02.669Z,29.43
2016-08-26T07:57:37.319Z,29.42
2016-08-26T07:58:14.095Z,29.51
2016-08-26T07:58:48.355Z,29.43
2016-08-26T07:59:22.641Z,29.5
2016-08-26T07:59:57.651Z,29.54
2016-08-26T08:00:33.600Z,29.57
2016-08-26T08:01:09.022Z,29.6
2016-08-26T08:01:44.546Z,29.5
2016-08-26T08:02:19.734Z,29.52
2016-08-26T08:02:55.025Z,29.58
2016-08-26T08:03:30.578Z,29.58
2016-08-26T08:04:06.146Z,29.65
2016-08-26T08:04:41.555Z,29.63
2016-08-26T08:05:17.309Z,29.72
2016-08-26T08:05:52.780Z,29.61
2016-08-26T08:06:28.415Z,29.67
2016-08-26T08:07:04.596Z,29.67
2016-08-26T08:07:39.862Z,29.66
2016-08-26T08:08:15.612Z,29.77
2016-08-26T08:08:51.916Z,29.81
2016-08-26T08:09:27.350Z,29.84
2016-08-26T08:10:03.270Z,29.85
2016-08-26T08:10:38.871Z,29.85
2016-08-26T08:11:15.251Z,29.79
2016-08-26T08:11:50.932Z,29.87
2016-08-26T08:12:26.663Z,29.82
2016-08-26T08:13:01.964Z,29.94
2016-08-26T08:13:39.220Z,29.85
2016-08-26T08:14:16.610Z,29.88
2016-08-26T08:14:58.114Z,29.94
2016-08-26T08:15:35.842Z,29.92
2016-08-26T08:16:12.610Z,30.03
2016-08-26T08:16:49.011Z,29.97
2016-08-26T08:17:24.505Z,29.97
2016-08-26T08:18:01.637Z,30.04
2016-08-26T08:18:37.014Z,30.11
2016-08-26T08:19:12.577Z,30.06
2016-08-26T08:19:48.190Z,30.04
2016-08-26T08:20:23.733Z,30.07
2016-08-26T08:21:00.104Z,30.14
2016-08-26T08:21:36.311Z,30.09
2016-08-26T08:22:13.915Z,30.13
2016-08-26T08:22:49.925Z,30.14
2016-08-26T08:23:26.173Z,30.14
2016-08-26T08:24:01.819Z,30.26
2016-08-26T08:24:38.688Z,30.21
2016-08-26T08:25:13.362Z,30.18
2016-08-26T08:25:50.129Z,30.19
2016-08-26T08:26:25.809Z,30.24
2016-08-26T08:27:01.383Z,30.34
2016-08-26T08:27:37.017Z,30.32
2016-08-26T08:28:13.307Z,30.34
2016-08-26T08:28:49.086Z,30.35
2016-08-26T08:29:24.583Z,30.44
2016-08-26T08:30:00.784Z,30.39
2016-08-26T08:30:37.693Z,30.4
2016-08-26T08:31:13.547Z,30.4
2016-08-26T08:31:50.751Z,30.44
2016-08-26T08:32:27.627Z,30.47
2016-08-26T08:33:03.165Z,30.51
2016-08-26T08:33:40.970Z,30.45
2016-08-26T08:34:20.117Z,30.47
2016-08-26T08:34:56.331Z,30.49
2016-08-26T08:35:31.823Z,30.47
2016-08-26T08:36:07.336Z,30.54
2016-08-26T08:36:43.624Z,30.54
2016-08-26T08:37:19.277Z,30.51
2016-08-26T08:37:54.880Z,30.54
2016-08-26T08:38:31.780Z,30.59
2016-08-26T08:39:09.022Z,30.6
2016-08-26T08:39:47.282Z,30.64
2016-08-26T08:40:23.046Z,30.6
2016-08-26T08:40:59.250Z,30.69
2016-08-26T08:41:35.052Z,30.69
2016-08-26T08:42:10.547Z,30.66
2016-08-26T08:42:46.127Z,30.73
2016-08-26T08:43:22.333Z,30.75
2016-08-26T08:43:57.873Z,30.7
2016-08-26T08:44:33.279Z,30.75
2016-08-26T08:45:10.349Z,30.77
2016-08-26T08:45:45.995Z,30.88
2016-08-26T08:46:21.566Z,30.81
2016-08-26T08:46:57.270Z,30.79
2016-08-26T08:47:34.134Z,30.79
2016-08-26T08:48:13.935Z,30.79
2016-08-26T08:48:51.697Z,30.82
2016-08-26T08:49:29.278Z,30.82
2016-08-26T08:50:07.753Z,30.82
2016-08-26T08:50:43.330Z,30.82
2016-08-26T08:51:19.599Z,30.91
2016-08-26T08:51:57.785Z,30.84
2016-08-26T08:52:35.129Z,30.93
2016-08-26T08:53:11.414Z,30.84
2016-08-26T08:53:46.892Z,30.81
2016-08-26T08:54:26.139Z,30.93
2016-08-26T08:55:06.775Z,30.94
2016-08-26T08:55:43.421Z,30.91
2016-08-26T08:56:19.068Z,30.88
2016-08-26T08:56:55.665Z,30.89
2016-08-26T08:57:30.990Z,30.91
2016-08-26T08:58:08.367Z,31.03
2016-08-26T08:58:44.481Z,30.93
2016-08-26T08:59:20.930Z,30.86
2016-08-26T08:59:58.855Z,30.93
2016-08-26T09:00:34.676Z,30.94
2016-08-26T09:01:09.749Z,30.97
2016-08-26T09:01:46.148Z,30.96
2016-08-26T09:02:23.151Z,31
2016-08-26T09:02:59.948Z,31.01
2016-08-26T09:03:36.266Z,31.03
2016-08-26T09:04:11.942Z,31.03
2016-08-26T09:04:47.543Z,31.04
2016-08-26T09:05:22.948Z,31.01
2016-08-26T09:05:58.237Z,31.08
2016-08-26T09:06:33.686Z,31.12
2016-08-26T09:07:10.649Z,31.03
2016-08-26T09:07:48.286Z,31.04
2016-08-26T09:08:23.619Z,31.08
2016-08-26T09:09:00.638Z,31.15
2016-08-26T09:09:36.139Z,31.16
2016-08-26T09:10:11.530Z,31.18
2016-08-26T09:10:47.924Z,31.26
2016-08-26T09:11:24.450Z,31.23
2016-08-26T09:11:59.755Z,31.15
2016-08-26T09:13:56.504Z,31.28
2016-08-26T09:14:32.538Z,31.28
2016-08-26T09:15:10.148Z,31.26
2016-08-26T09:15:46.621Z,31.23
2016-08-26T09:16:22.611Z,31.21
2016-08-26T09:16:58.217Z,31.26
2016-08-26T09:17:34.461Z,31.23
2016-08-26T09:18:09.487Z,31.25
2016-08-26T09:18:44.875Z,31.34
2016-08-26T09:19:23.218Z,31.33
2016-08-26T09:19:58.150Z,31.33
2016-08-26T09:20:34.146Z,31.3
2016-08-26T09:21:10.943Z,31.3
2016-08-26T09:21:48.648Z,31.4
2016-08-26T09:22:27.652Z,31.4
2016-08-26T09:23:07.660Z,31.44
2016-08-26T09:23:47.657Z,31.4
2016-08-26T09:24:25.694Z,31.44
2016-08-26T09:25:01.062Z,31.45
2016-08-26T09:25:37.285Z,31.47
2016-08-26T09:26:12.770Z,31.47
2016-08-26T09:26:48.251Z,31.49
2016-08-26T09:27:23.631Z,31.55
2016-08-26T09:27:59.116Z,31.52
2016-08-26T09:28:34.570Z,31.55
2016-08-26T09:29:10.180Z,31.55
2016-08-26T09:29:45.458Z,31.55
2016-08-26T09:30:20.580Z,31.58
2016-08-26T09:30:56.005Z,31.56
2016-08-26T09:31:30.978Z,31.6
2016-08-26T09:32:05.269Z,31.53
2016-08-26T09:32:39.575Z,31.71
2016-08-26T09:33:13.876Z,31.63
2016-08-26T09:33:48.465Z,31.7
2016-08-26T09:34:22.752Z,31.68
2016-08-26T09:34:57.051Z,31.77
2016-08-26T09:35:31.342Z,31.67
2016-08-26T09:36:05.619Z,31.68
2016-08-26T09:36:39.914Z,31.75
2016-08-26T09:37:14.210Z,31.72
2016-08-26T09:37:48.611Z,31.68
2016-08-26T09:38:22.912Z,31.7
2016-08-26T09:38:57.208Z,31.75
2016-08-26T09:39:31.503Z,31.82
2016-08-26T09:40:05.852Z,31.86
2016-08-26T09:40:40.212Z,31.88
2016-08-26T09:41:14.503Z,31.88
2016-08-26T09:41:48.779Z,31.88
2016-08-26T09:42:23.072Z,31.9
2016-08-26T09:42:57.368Z,32
2016-08-26T09:43:31.650Z,31.95
2016-08-26T09:44:06.939Z,31.94
2016-08-26T09:44:41.286Z,32.05
2016-08-26T09:45:15.623Z,31.97
2016-08-26T09:45:49.937Z,31.95
2016-08-26T09:46:24.240Z,31.93
2016-08-26T09:46:58.567Z,32
2016-08-26T09:47:32.856Z,32.1
2016-08-26T09:48:07.140Z,32.08
2016-08-26T09:48:41.431Z,31.97
2016-08-26T09:49:15.723Z,32.17
2016-08-26T09:49:50.682Z,32.16
2016-08-26T09:50:25.631Z,32.16
2016-08-26T09:50:59.918Z,32.17
2016-08-26T09:51:35.549Z,32.09
2016-08-26T09:52:09.915Z,32.31
2016-08-26T09:52:46.178Z,32.2
2016-08-26T09:53:24.487Z,32.25
2016-08-26T09:54:02.173Z,32.2
2016-08-26T09:54:39.520Z,32.32
2016-08-26T09:55:16.715Z,32.31
2016-08-26T09:55:52.004Z,32.35
2016-08-26T09:56:33.227Z,32.3
2016-08-26T09:57:15.181Z,32.42
2016-08-26T09:57:59.691Z,32.46
2016-08-26T09:58:52.694Z,32.45
2016-08-26T09:59:37.698Z,32.49
2016-08-26T10:00:27.175Z,32.57
2016-08-26T10:01:20.701Z,32.59
2016-08-26T10:02:01.064Z,32.59
2016-08-26T10:02:42.217Z,32.65
2016-08-26T10:03:28.259Z,32.65
2016-08-26T10:04:11.259Z,32.61
2016-08-26T10:04:54.847Z,32.65
2016-08-26T10:05:32.693Z,32.64
2016-08-26T10:06:13.203Z,32.76
2016-08-26T10:06:52.717Z,32.68
2016-08-26T10:07:39.692Z,32.79
2016-08-26T10:08:28.203Z,32.76
2016-08-26T10:10:30.324Z,32.8
2016-08-26T10:11:04.858Z,32.76
2016-08-26T10:11:40.684Z,32.89
2016-08-26T10:12:20.208Z,32.87
2016-08-26T10:13:03.425Z,32.91
2016-08-26T10:13:42.394Z,33.03
2016-08-26T10:14:25.200Z,33.03
2016-08-26T10:15:08.687Z,33.05
2016-08-26T10:15:56.194Z,33.03
2016-08-26T10:16:41.192Z,33.08
2016-08-26T10:17:20.285Z,33.08
2016-08-26T10:18:00.692Z,33.06
2016-08-26T10:18:40.707Z,33.13
2016-08-26T10:19:26.200Z,33.09
2016-08-26T10:20:08.707Z,33.09
2016-08-26T10:20:58.210Z,33.11
2016-08-26T10:21:43.705Z,33.12
2016-08-26T10:22:25.710Z,33.2
2016-08-26T10:23:10.210Z,33.21
2016-08-26T10:23:57.227Z,33.21
2016-08-26T10:24:38.475Z,33.26
2016-08-26T10:25:33.697Z,33.29
2016-08-26T10:26:20.750Z,33.37
2016-08-26T10:29:02.165Z,33.47
2016-08-26T10:29:36.478Z,33.44
2016-08-26T10:30:10.774Z,33.46
2016-08-26T10:30:45.069Z,33.53
2016-08-26T10:31:19.364Z,33.52
2016-08-26T10:31:53.681Z,33.61
2016-08-26T10:32:27.956Z,33.63
2016-08-26T10:33:02.238Z,33.56
2016-08-26T10:33:36.539Z,33.56
2016-08-26T10:34:10.834Z,33.61
2016-08-26T10:34:45.647Z,33.66
2016-08-26T10:35:19.960Z,33.62
2016-08-26T10:35:54.272Z,33.69
2016-08-26T10:36:28.554Z,33.71
2016-08-26T10:37:05.589Z,33.66
2016-08-26T10:37:40.010Z,33.8
2016-08-26T10:38:14.298Z,33.81
2016-08-26T10:38:48.579Z,33.81
2016-08-26T10:39:22.904Z,33.78
2016-08-26T10:39:57.730Z,33.81
2016-08-26T10:40:32.091Z,33.83
2016-08-26T10:41:06.389Z,33.83
2016-08-26T10:41:40.689Z,33.85
2016-08-26T10:42:15.896Z,33.93
2016-08-26T10:42:50.207Z,33.99
2016-08-26T10:43:24.584Z,33.96
2016-08-26T10:43:58.868Z,33.95
2016-08-26T10:44:33.170Z,34.08
2016-08-26T10:45:07.474Z,34.1
2016-08-26T10:45:41.875Z,34.06
2016-08-26T10:46:16.177Z,34.12
2016-08-26T10:46:50.461Z,34.17
2016-08-26T10:47:24.754Z,34.15
2016-08-26T10:47:59.035Z,34.18
2016-08-26T10:48:33.325Z,34.26
2016-08-26T10:49:07.617Z,34.22
2016-08-26T10:49:41.927Z,34.3
2016-08-26T10:50:16.220Z,34.29
2016-08-26T10:50:50.507Z,34.33
2016-08-26T10:51:24.794Z,34.32
2016-08-26T10:51:59.732Z,34.3
2016-08-26T10:52:34.651Z,34.36
2016-08-26T10:53:08.959Z,34.4
2016-08-26T10:53:44.150Z,34.4
2016-08-26T10:54:20.833Z,34.45
2016-08-26T10:54:55.964Z,34.46
2016-08-26T10:55:30.241Z,34.52
2016-08-26T10:56:04.564Z,34.56
2016-08-26T10:56:38.859Z,34.56
2016-08-26T10:57:13.179Z,34.61
2016-08-26T10:57:48.233Z,34.59
2016-08-26T10:58:22.512Z,34.59
2016-08-26T10:58:56.827Z,34.66
2016-08-26T10:59:31.183Z,34.78
2016-08-26T11:00:07.708Z,34.67
2016-08-26T11:00:42.011Z,34.71
2016-08-26T11:01:18.681Z,34.69
2016-08-26T11:01:53.040Z,34.71
2016-08-26T11:02:27.331Z,34.72
2016-08-26T11:03:02.735Z,34.66
2016-08-26T11:03:37.046Z,34.83
2016-08-26T11:04:11.332Z,34.75
2016-08-26T11:04:45.620Z,34.81
2016-08-26T11:05:19.914Z,34.81
2016-08-26T11:05:54.221Z,34.69
2016-08-26T11:06:28.502Z,34.84
2016-08-26T11:07:02.803Z,34.74
2016-08-26T11:07:37.075Z,34.89
2016-08-26T11:08:11.370Z,34.86
2016-08-26T11:08:45.699Z,34.86
2016-08-26T11:09:19.991Z,34.93
2016-08-26T11:09:54.277Z,34.9
2016-08-26T11:10:28.571Z,34.87
2016-08-26T11:11:02.874Z,34.91
2016-08-26T11:11:37.184Z,34.94
2016-08-26T11:12:11.461Z,34.94
2016-08-26T11:12:45.746Z,34.94
2016-08-26T11:13:20.098Z,34.93
2016-08-26T11:13:54.381Z,35.02
2016-08-26T11:14:28.669Z,35.04
2016-08-26T11:15:02.960Z,35.05
2016-08-26T11:15:37.248Z,35.09
2016-08-26T11:16:11.535Z,35.21
2016-08-26T11:16:45.823Z,35.2
2016-08-26T11:17:20.128Z,35.18
2016-08-26T11:17:54.445Z,35.28
2016-08-26T11:18:28.729Z,35.3
2016-08-26T11:19:03.052Z,35.33
2016-08-26T11:19:37.355Z,35.31
2016-08-26T11:20:11.648Z,35.28
2016-08-26T11:20:45.941Z,35.34
2016-08-26T11:21:20.247Z,35.4
2016-08-26T11:21:54.548Z,35.42
2016-08-26T11:22:28.837Z,35.5
2016-08-26T11:23:03.979Z,35.53
2016-08-26T11:23:38.318Z,35.57
2016-08-26T11:24:12.621Z,35.61
2016-08-26T11:24:46.906Z,35.69
2016-08-26T11:25:21.184Z,35.67
2016-08-26T11:25:55.478Z,35.79
2016-08-26T11:26:30.291Z,35.82
2016-08-26T11:27:05.654Z,35.82
2016-08-26T11:27:41.072Z,35.86
2016-08-26T11:28:15.372Z,35.84
2016-08-26T11:28:49.650Z,36.01
2016-08-26T11:29:23.949Z,36.02
2016-08-26T11:29:58.255Z,35.96
2016-08-26T11:30:32.549Z,36.14
2016-08-26T11:31:06.836Z,36.09
2016-08-26T11:31:41.140Z,36.17
2016-08-26T11:32:15.410Z,36.18
2016-08-26T11:32:49.722Z,36.28
2016-08-26T11:33:24.005Z,36.3
2016-08-26T11:33:58.320Z,36.25
2016-08-26T11:34:32.854Z,36.34
2016-08-26T11:35:07.153Z,36.34
2016-08-26T11:35:41.444Z,36.43
2016-08-26T11:36:15.729Z,36.53
2016-08-26T11:36:50.031Z,36.56
2016-08-26T11:37:24.313Z,36.55
2016-08-26T11:37:58.607Z,36.65
2016-08-26T11:38:32.900Z,36.67
2016-08-26T11:39:07.201Z,36.81
2016-08-26T11:39:41.504Z,36.81
2016-08-26T11:40:15.797Z,36.75
2016-08-26T11:40:50.081Z,36.81
2016-08-26T11:41:24.363Z,36.88
2016-08-26T11:41:58.647Z,36.97
2016-08-26T11:42:32.948Z,36.93
2016-08-26T11:43:07.240Z,36.95
2016-08-26T11:43:41.505Z,37
2016-08-26T11:44:15.798Z,37.14
2016-08-26T11:44:50.122Z,37.09
2016-08-26T11:45:24.415Z,37.14
2016-08-26T11:45:58.718Z,37.29
2016-08-26T11:46:33.009Z,37.24
2016-08-26T11:47:07.588Z,37.24
2016-08-26T11:47:41.877Z,37.37
2016-08-26T11:48:16.171Z,37.44
2016-08-26T11:48:50.458Z,37.37
2016-08-26T11:49:24.745Z,37.46
2016-08-26T11:49:59.042Z,37.49
2016-08-26T11:50:33.347Z,37.53
2016-08-26T11:51:07.634Z,37.68
2016-08-26T11:51:41.940Z,37.68
2016-08-26T11:52:16.235Z,37.76
2016-08-26T11:52:51.258Z,37.72
2016-08-26T11:53:25.772Z,37.8
2016-08-26T11:54:00.104Z,37.86
2016-08-26T11:54:34.388Z,37.91
2016-08-26T11:55:08.967Z,38.02
2016-08-26T11:55:43.255Z,38
2016-08-26T11:56:17.548Z,38.09
2016-08-26T11:56:51.872Z,37.98
2016-08-26T11:57:26.168Z,38.1
2016-08-26T11:58:00.455Z,38.13
2016-08-26T11:58:34.737Z,38.18
2016-08-26T11:59:09.214Z,38.22
2016-08-26T11:59:43.630Z,38.27
2016-08-26T12:00:17.910Z,38.37
2016-08-26T12:00:52.209Z,38.36
2016-08-26T12:01:26.503Z,38.44
2016-08-26T12:02:00.794Z,38.43
2016-08-26T12:02:35.096Z,38.52
2016-08-26T12:03:09.480Z,38.54
2016-08-26T12:03:44.124Z,38.64
2016-08-26T12:04:19.847Z,38.61
2016-08-26T12:04:54.597Z,38.78
2016-08-26T12:05:28.942Z,38.73
2016-08-26T12:06:03.364Z,38.76
2016-08-26T12:06:37.825Z,38.83
2016-08-26T12:07:12.122Z,38.89
2016-08-26T12:07:46.446Z,38.96
2016-08-26T12:08:20.825Z,39.01
2016-08-26T12:08:55.109Z,39
2016-08-26T12:09:29.911Z,39.03
2016-08-26T12:10:04.246Z,39.06
2016-08-26T12:10:38.541Z,39.16
2016-08-26T12:11:12.828Z,39.22
2016-08-26T12:11:47.115Z,39.28
2016-08-26T12:12:21.402Z,39.35
2016-08-26T12:12:55.722Z,39.33
2016-08-26T12:13:30.006Z,39.4
2016-08-26T12:14:04.311Z,39.49
2016-08-26T12:14:38.743Z,39.47
2016-08-26T12:15:14.602Z,39.52
2016-08-26T12:15:49.467Z,39.6
2016-08-26T12:16:23.996Z,39.64
2016-08-26T12:16:58.792Z,39.68
2016-08-26T12:17:33.196Z,39.67
2016-08-26T12:18:08.159Z,39.83
2016-08-26T12:18:42.694Z,39.79
2016-08-26T12:19:16.996Z,39.88
2016-08-26T12:19:51.289Z,39.88
2016-08-26T12:20:25.576Z,39.96
2016-08-26T12:20:59.900Z,40.01
2016-08-26T12:21:34.736Z,40.05
2016-08-26T12:22:09.684Z,40.15
2016-08-26T12:22:43.973Z,40.24
2016-08-26T12:23:18.342Z,40.27
2016-08-26T12:23:52.643Z,40.28
2016-08-26T12:24:26.945Z,40.25
2016-08-26T12:25:02.068Z,40.5
2016-08-26T12:25:36.476Z,40.48
2016-08-26T12:26:10.762Z,40.6
2016-08-26T12:26:45.057Z,40.6
2016-08-26T12:27:19.347Z,40.66
2016-08-26T12:27:54.757Z,40.79
2016-08-26T12:28:29.064Z,40.82
2016-08-26T12:29:03.365Z,40.89
2016-08-26T12:29:37.870Z,40.98
2016-08-26T12:30:12.703Z,40.94
2016-08-26T12:30:47.071Z,41.11
2016-08-26T12:31:21.371Z,41.08
2016-08-26T12:31:55.789Z,41.06
2016-08-26T12:32:30.110Z,41.18
2016-08-26T12:33:04.943Z,41.31
2016-08-26T12:33:39.239Z,41.32
2016-08-26T12:34:13.554Z,41.37
2016-08-26T12:34:47.853Z,41.32
2016-08-26T12:35:22.204Z,41.54
2016-08-26T12:35:56.500Z,41.53
2016-08-26T12:36:30.792Z,41.53
2016-08-26T12:37:05.071Z,41.68
2016-08-26T12:37:39.343Z,41.68
2016-08-26T12:38:13.636Z,41.73
2016-08-26T12:38:47.948Z,41.8
2016-08-26T12:39:22.232Z,41.82
2016-08-26T12:39:56.535Z,41.92
2016-08-26T12:40:30.823Z,41.96
2016-08-26T12:41:05.133Z,41.96
2016-08-26T12:41:39.444Z,42.04
2016-08-26T12:42:13.750Z,42.06
2016-08-26T12:42:48.058Z,42.11
2016-08-26T12:43:22.372Z,42.2
2016-08-26T12:43:56.685Z,42.07
2016-08-26T12:44:30.979Z,42.14
2016-08-26T12:45:05.903Z,42.14
2016-08-26T12:45:41.040Z,42.28
2016-08-26T12:46:15.339Z,42.25
2016-08-26T12:46:49.626Z,42.3
2016-08-26T12:47:23.926Z,42.28
2016-08-26T12:47:58.224Z,42.25
2016-08-26T12:48:32.536Z,42.28
2016-08-26T12:49:06.840Z,42.36
2016-08-26T12:49:41.118Z,42.33
2016-08-26T12:50:15.396Z,42.48
2016-08-26T12:50:49.696Z,42.35
2016-08-26T12:51:24.001Z,42.48
2016-08-26T12:51:58.296Z,42.51
2016-08-26T12:52:32.584Z,42.55
2016-08-26T12:53:06.877Z,42.51
2016-08-26T12:53:41.185Z,42.6
2016-08-26T12:54:15.468Z,42.61
2016-08-26T12:54:49.753Z,42.61
2016-08-26T12:55:24.047Z,42.54
2016-08-26T12:55:58.338Z,42.64
2016-08-26T12:56:32.645Z,42.69
2016-08-26T12:57:06.950Z,42.61
2016-08-26T12:57:41.255Z,42.7
2016-08-26T12:58:15.522Z,42.76
2016-08-26T12:58:49.816Z,42.74
2016-08-26T12:59:24.101Z,42.67
2016-08-26T12:59:58.402Z,42.86
2016-08-26T13:00:32.717Z,42.79
2016-08-26T13:01:07.018Z,42.83
2016-08-26T13:01:41.351Z,42.9
2016-08-26T13:02:15.647Z,42.89
2016-08-26T13:02:50.834Z,42.88
2016-08-26T13:03:25.124Z,42.92
2016-08-26T13:03:59.426Z,42.92
2016-08-26T13:04:33.722Z,42.94
2016-08-26T13:05:08.093Z,42.9
2016-08-26T13:05:42.376Z,43.01
2016-08-26T13:06:16.730Z,42.97
2016-08-26T13:06:51.079Z,43.01
2016-08-26T13:07:25.375Z,43
2016-08-26T13:07:59.672Z,43.08
2016-08-26T13:08:33.984Z,43.1
2016-08-26T13:09:08.257Z,43.13
2016-08-26T13:09:42.547Z,43.16
2016-08-26T13:10:16.936Z,43.15
2016-08-26T13:10:51.242Z,43.13
2016-08-26T13:11:25.542Z,43.13
2016-08-26T13:11:59.821Z,43.27
2016-08-26T13:12:34.116Z,43.25
2016-08-26T13:13:08.413Z,43.27
2016-08-26T13:13:42.717Z,43.28
2016-08-26T13:14:17.010Z,43.27
2016-08-26T13:14:51.298Z,43.4
2016-08-26T13:15:25.602Z,43.24
2016-08-26T13:15:59.886Z,43.25
2016-08-26T13:16:34.192Z,43.4
2016-08-26T13:17:08.477Z,43.42
2016-08-26T13:17:42.765Z,43.49
2016-08-26T13:18:17.054Z,43.47
2016-08-26T13:18:51.350Z,43.51
2016-08-26T13:19:25.656Z,43.54
2016-08-26T13:19:59.944Z,43.57
2016-08-26T13:20:34.231Z,43.55
2016-08-26T13:21:08.516Z,43.59
2016-08-26T13:21:42.812Z,43.59
2016-08-26T13:22:17.126Z,43.66
2016-08-26T13:22:51.415Z,43.65
2016-08-26T13:23:25.716Z,43.64
2016-08-26T13:24:00.002Z,43.64
2016-08-26T13:24:34.294Z,43.59
2016-08-26T13:25:08.585Z,43.71
2016-08-26T13:25:42.887Z,43.66
2016-08-26T13:26:17.158Z,43.73
2016-08-26T13:26:51.441Z,43.71
2016-08-26T13:27:25.733Z,43.8
2016-08-26T13:28:00.039Z,43.76
2016-08-26T13:28:34.332Z,43.83
2016-08-26T13:29:08.641Z,43.88
2016-08-26T13:29:42.953Z,43.85
2016-08-26T13:30:17.247Z,43.9
2016-08-26T13:30:51.569Z,43.85
2016-08-26T13:31:25.862Z,43.89
2016-08-26T13:32:00.162Z,43.93
2016-08-26T13:32:34.450Z,43.84
2016-08-26T13:33:08.748Z,43.93
2016-08-26T13:33:43.018Z,43.96
2016-08-26T13:34:17.303Z,43.95
2016-08-26T13:34:51.606Z,44
2016-08-26T13:35:25.886Z,44.02
2016-08-26T13:36:00.189Z,43.99
2016-08-26T13:36:34.488Z,43.96
2016-08-26T13:37:08.800Z,44
2016-08-26T13:37:43.097Z,43.99
2016-08-26T13:38:17.382Z,43.99
2016-08-26T13:38:51.687Z,43.96
2016-08-26T13:39:25.962Z,44.08
2016-08-26T13:40:00.260Z,43.99
2016-08-26T13:40:34.553Z,44.15
2016-08-26T13:41:08.847Z,44.12
2016-08-26T13:41:43.146Z,44
2016-08-26T13:42:17.442Z,44.17
2016-08-26T13:42:51.732Z,44.12
2016-08-26T13:43:26.034Z,44.11
2016-08-26T13:44:00.318Z,44.08
2016-08-26T13:44:34.596Z,44.15
2016-08-26T13:45:08.894Z,44.12
2016-08-26T13:45:43.183Z,44.17
2016-08-26T13:46:17.489Z,44.11
2016-08-26T13:46:51.783Z,44.12
2016-08-26T13:47:26.071Z,44.12
2016-08-26T13:48:00.369Z,44.03
2016-08-26T13:48:34.651Z,44.03
2016-08-26T13:49:08.939Z,44.11
2016-08-26T13:49:43.254Z,44.11
2016-08-26T13:50:17.552Z,44.12
2016-08-26T13:50:51.869Z,44.08
2016-08-26T13:51:26.156Z,44.17
2016-08-26T13:52:00.464Z,44.12
2016-08-26T13:52:34.772Z,44.11
2016-08-26T13:53:09.054Z,44.18
2016-08-26T13:53:43.341Z,44.11
2016-08-26T13:54:17.621Z,44.11
2016-08-26T13:54:51.925Z,44.12
2016-08-26T13:55:26.233Z,44.12
2016-08-26T13:56:00.538Z,44.15
2016-08-26T13:56:34.847Z,44.14
2016-08-26T13:57:09.149Z,44.03
2016-08-26T13:57:43.464Z,44.07
2016-08-26T13:58:17.771Z,44.15
2016-08-26T13:58:52.064Z,44.12
2016-08-26T13:59:26.371Z,44
2016-08-26T14:00:00.666Z,44.1
2016-08-26T14:00:34.953Z,44
2016-08-26T14:01:09.245Z,44.1
2016-08-26T14:01:43.556Z,44.14
2016-08-26T14:02:17.854Z,44.15
2016-08-26T14:02:52.150Z,43.97
2016-08-26T14:03:26.448Z,44.14
2016-08-26T14:04:00.731Z,44.11
2016-08-26T14:04:35.035Z,43.99
2016-08-26T14:05:09.332Z,44.05
2016-08-26T14:05:43.654Z,44.14
2016-08-26T14:06:17.937Z,43.99
2016-08-26T14:06:52.235Z,44
2016-08-26T14:07:26.542Z,44.08
2016-08-26T14:08:00.835Z,44.05
2016-08-26T14:08:35.136Z,44.05
2016-08-26T14:09:09.420Z,44.11
2016-08-26T14:09:43.723Z,44.1
2016-08-26T14:10:18.023Z,44.02
2016-08-26T14:10:52.330Z,44.1
2016-08-26T14:11:26.633Z,44.1
2016-08-26T14:12:00.945Z,44.08
2016-08-26T14:12:35.224Z,44.14
2016-08-26T14:13:09.521Z,44.11
2016-08-26T14:13:43.815Z,44.07
2016-08-26T14:14:18.114Z,44.1
2016-08-26T14:14:52.420Z,44.05
2016-08-26T14:15:26.723Z,44.02
2016-08-26T14:16:01.034Z,43.97
2016-08-26T14:16:35.320Z,43.96
2016-08-26T14:17:09.612Z,44.03
2016-08-26T14:17:43.931Z,44.03
2016-08-26T14:18:18.230Z,43.99
2016-08-26T14:18:52.533Z,44.03
2016-08-26T14:19:26.824Z,44.02
2016-08-26T14:20:01.128Z,44.03
2016-08-26T14:20:35.449Z,43.96
2016-08-26T14:21:09.760Z,43.97
2016-08-26T14:21:44.047Z,43.96
2016-08-26T14:22:18.337Z,43.96
2016-08-26T14:22:52.622Z,43.96
2016-08-26T14:23:26.929Z,43.96
2016-08-26T14:24:01.234Z,43.89
2016-08-26T14:24:35.531Z,43.84
2016-08-26T14:25:09.842Z,43.99
2016-08-26T14:25:44.162Z,43.93
2016-08-26T14:26:18.454Z,43.9
2016-08-26T14:26:52.753Z,43.88
2016-08-26T14:27:27.037Z,43.89
2016-08-26T14:28:01.318Z,43.88
2016-08-26T14:28:35.620Z,43.85
2016-08-26T14:29:09.923Z,43.76
2016-08-26T14:29:44.230Z,43.76
2016-08-26T14:30:18.534Z,43.74
2016-08-26T14:30:52.830Z,43.73
2016-08-26T14:31:27.118Z,43.73
2016-08-26T14:32:01.422Z,43.8
2016-08-26T14:32:35.730Z,43.76
2016-08-26T14:33:10.054Z,43.76
2016-08-26T14:33:44.480Z,43.65
2016-08-26T14:34:18.789Z,43.62
2016-08-26T14:34:53.079Z,43.65
2016-08-26T14:35:27.368Z,43.64
2016-08-26T14:36:01.666Z,43.61
2016-08-26T14:36:35.978Z,43.61
2016-08-26T14:37:10.275Z,43.59
2016-08-26T14:37:44.576Z,43.57
2016-08-26T14:38:18.879Z,43.58
2016-08-26T14:38:53.168Z,43.52
2016-08-26T14:39:27.458Z,43.52
2016-08-26T14:40:01.768Z,43.54
2016-08-26T14:40:36.074Z,43.54
2016-08-26T14:41:10.371Z,43.44
2016-08-26T14:41:44.673Z,43.51
2016-08-26T14:42:18.956Z,43.43
2016-08-26T14:42:53.283Z,43.39
2016-08-26T14:43:27.583Z,43.39
2016-08-26T14:44:01.873Z,43.28
2016-08-26T14:44:36.177Z,43.25
2016-08-26T14:45:10.499Z,43.3
2016-08-26T14:45:44.792Z,43.28
2016-08-26T14:46:19.099Z,43.25
2016-08-26T14:46:53.409Z,43.33
2016-08-26T14:47:27.701Z,43.25
2016-08-26T14:48:01.989Z,43.32
2016-08-26T14:48:36.279Z,43.24
2016-08-26T14:49:10.571Z,43.16
2016-08-26T14:49:44.857Z,43.15
2016-08-26T14:50:19.160Z,43.15
2016-08-26T14:50:53.444Z,43.16
2016-08-26T14:51:27.727Z,43.1
2016-08-26T14:52:02.031Z,43.17
2016-08-26T14:52:36.334Z,43.08
2016-08-26T14:53:10.635Z,43.02
2016-08-26T14:53:44.936Z,43.11
2016-08-26T14:54:19.225Z,43.05
2016-08-26T14:54:53.528Z,42.97
2016-08-26T14:55:27.827Z,43.01
2016-08-26T14:56:02.132Z,42.97
2016-08-26T14:56:36.440Z,42.94
2016-08-26T14:57:10.733Z,42.89
2016-08-26T14:57:45.024Z,42.86
2016-08-26T14:58:19.319Z,42.86
2016-08-26T14:58:53.609Z,42.85
2016-08-26T14:59:27.912Z,42.81
2016-08-26T15:00:02.206Z,42.78
2016-08-26T15:00:36.506Z,42.76
2016-08-26T15:01:10.802Z,42.78
2016-08-26T15:01:45.105Z,42.7
2016-08-26T15:02:19.386Z,42.71
2016-08-26T15:02:53.680Z,42.69
2016-08-26T15:03:27.970Z,42.55
2016-08-26T15:04:02.263Z,42.63
2016-08-26T15:04:36.581Z,42.57
2016-08-26T15:05:10.879Z,42.57
2016-08-26T15:05:45.192Z,42.52
2016-08-26T15:06:19.499Z,42.54
2016-08-26T15:06:53.781Z,42.52
2016-08-26T15:07:28.064Z,42.44
2016-08-26T15:08:02.392Z,42.44
2016-08-26T15:08:36.694Z,42.52
2016-08-26T15:09:10.993Z,42.36
2016-08-26T15:09:45.284Z,42.33
2016-08-26T15:10:19.577Z,42.35
2016-08-26T15:10:53.872Z,42.28
2016-08-26T15:11:28.170Z,42.25
2016-08-26T15:12:02.473Z,42.17
2016-08-26T15:12:36.779Z,42.18
2016-08-26T15:13:11.070Z,42.14
2016-08-26T15:13:45.359Z,42.13
2016-08-26T15:14:19.663Z,42.14
2016-08-26T15:14:53.983Z,42.13
2016-08-26T15:15:28.280Z,41.99
2016-08-26T15:16:02.566Z,42.07
2016-08-26T15:16:36.850Z,41.99
2016-08-26T15:17:11.143Z,41.95
2016-08-26T15:17:45.427Z,41.91
2016-08-26T15:18:19.711Z,41.85
2016-08-26T15:18:54.011Z,41.83
2016-08-26T15:19:28.309Z,41.78
2016-08-26T15:20:02.614Z,41.85
2016-08-26T15:20:36.906Z,41.76
2016-08-26T15:21:11.211Z,41.76
2016-08-26T15:21:45.510Z,41.66
2016-08-26T15:22:19.795Z,41.52
2016-08-26T15:22:54.102Z,41.54
2016-08-26T15:23:28.399Z,41.44
2016-08-26T15:24:02.708Z,41.47
2016-08-26T15:24:37.016Z,41.44
2016-08-26T15:25:11.318Z,41.45
2016-08-26T15:25:45.624Z,41.31
2016-08-26T15:26:19.914Z,41.19
2016-08-26T15:26:54.193Z,41.22
2016-08-26T15:27:28.492Z,41.13
2016-08-26T15:28:02.776Z,41.11
2016-08-26T15:28:37.100Z,41.04
2016-08-26T15:29:11.395Z,40.96
2016-08-26T15:29:45.700Z,40.97
2016-08-26T15:30:19.981Z,40.93
2016-08-26T15:30:54.281Z,40.75
2016-08-26T15:31:28.583Z,40.72
2016-08-26T15:32:02.883Z,40.65